Time;durP1;ratioP1;P1;durP2;ratioP2;P2;SDS_P1;SDS_P2;PMS_P1;PMS_P2;Temp;Humidity;BMP_temperature;BMP_pressure;BME280_temperature;BME280_humidity;BME280_pressure;Samples;Min_cycle;Max_cycle;Signal;HPM_P1;HPM_P2
2024/03/12 00:00:56;;;;;;;3.33;1.60;;;9.50;57.80;;;;;;5135198;27;20191;-66
2024/03/12 00:03:27;;;;;;;6.43;2.13;;;9.50;57.90;;;;;;5135407;27;20215;-66
2024/03/12 00:05:57;;;;;;;2.60;1.80;;;9.50;58.30;;;;;;5135084;27;20460;-66
2024/03/12 00:08:24;;;;;;;3.17;1.92;;;9.40;58.30;;;;;;5135344;27;20191;-66
2024/03/12 00:10:54;;;;;;;4.95;2.38;;;9.40;58.30;;;;;;5134661;27;20218;-66
2024/03/12 00:13:21;;;;;;;3.90;2.30;;;9.30;58.50;;;;;;5135012;27;20271;-65
2024/03/12 00:15:48;;;;;;;3.55;1.70;;;9.30;58.80;;;;;;5135213;27;20187;-65
2024/03/12 00:18:15;;;;;;;3.70;1.95;;;9.30;58.80;;;;;;5134858;27;20603;-67
2024/03/12 00:20:43;;;;;;;3.47;1.90;;;9.30;59.00;;;;;;5135217;27;20215;-66
2024/03/12 00:23:11;;;;;;;3.58;2.17;;;9.30;58.80;;;;;;5134741;27;20240;-66
2024/03/12 00:25:40;;;;;;;3.60;1.95;;;9.40;58.60;;;;;;5135014;27;20237;-65
2024/03/12 00:28:08;;;;;;;2.75;2.00;;;9.40;58.60;;;;;;5135014;27;20283;-65
2024/03/12 00:30:38;;;;;;;4.45;2.35;;;9.40;58.40;;;;;;5134730;27;20267;-65
2024/03/12 00:33:05;;;;;;;3.95;2.10;;;9.40;58.30;;;;;;5134661;27;20184;-65
2024/03/12 00:35:35;;;;;;;3.35;2.20;;;9.40;58.30;;;;;;5135026;27;20525;-65
2024/03/12 00:38:03;;;;;;;2.95;2.03;;;9.40;58.30;;;;;;5134432;27;20214;-66
2024/03/12 00:40:35;;;;;;;4.28;2.65;;;9.50;58.40;;;;;;5134452;27;20211;-65
2024/03/12 00:43:02;;;;;;;3.90;2.10;;;9.50;58.30;;;;;;5134494;27;20679;-65
2024/03/12 00:45:36;;;;;;;3.42;1.95;;;9.50;58.20;;;;;;5134757;27;20179;-66
2024/03/12 00:48:04;;;;;;;3.85;2.17;;;9.50;58.10;;;;;;5134899;27;20175;-65
2024/03/12 00:50:30;;;;;;;3.22;1.92;;;9.50;58.00;;;;;;5134368;27;20626;-65
2024/03/12 00:52:58;;;;;;;2.60;2.00;;;9.50;58.00;;;;;;5134673;27;20268;-67
2024/03/12 00:55:28;;;;;;;2.88;2.13;;;9.50;58.20;;;;;;5134286;27;20628;-67
2024/03/12 00:57:57;;;;;;;3.83;2.03;;;9.60;58.20;;;;;;5134191;27;20222;-66
2024/03/12 01:00:26;;;;;;;2.75;1.83;;;9.60;58.20;;;;;;5134583;28;20209;-66
2024/03/12 01:02:54;;;;;;;3.47;2.10;;;9.50;58.20;;;;;;5134730;28;20188;-66
2024/03/12 01:05:24;;;;;;;3.97;2.08;;;9.50;58.40;;;;;;5134594;28;20187;-67
2024/03/12 01:07:58;;;;;;;3.25;2.08;;;9.50;58.40;;;;;;5134738;28;20183;-66
2024/03/12 01:10:26;;;;;;;3.05;2.10;;;9.50;58.20;;;;;;5134160;28;20636;-66
2024/03/12 01:12:55;;;;;;;3.10;1.67;;;9.50;58.60;;;;;;5134416;28;20531;-66
2024/03/12 01:15:25;;;;;;;3.65;1.80;;;9.50;58.50;;;;;;5134497;28;20191;-66
2024/03/12 01:17:54;;;;;;;3.90;2.28;;;9.50;58.60;;;;;;5134442;28;20613;-66
2024/03/12 01:20:24;;;;;;;3.22;1.70;;;9.50;58.80;;;;;;5134696;27;20673;-65
2024/03/12 01:22:55;;;;;;;3.40;1.98;;;9.60;58.60;;;;;;5138303;27;20179;-65
2024/03/12 01:25:24;;;;;;;4.05;2.17;;;9.60;58.70;;;;;;5138801;27;20168;-67
2024/03/12 01:27:55;;;;;;;3.50;2.20;;;9.60;58.60;;;;;;5138561;27;20232;-66
2024/03/12 01:30:27;;;;;;;2.83;1.75;;;9.60;58.60;;;;;;5138078;27;20258;-66
2024/03/12 01:32:57;;;;;;;4.78;2.15;;;9.70;58.60;;;;;;5138291;27;20175;-66
2024/03/12 01:35:30;;;;;;;4.80;2.25;;;9.70;59.00;;;;;;5137946;27;20254;-66
2024/03/12 01:37:58;;;;;;;4.35;2.78;;;9.70;58.30;;;;;;5138252;27;20198;-65
2024/03/12 01:40:27;;;;;;;3.20;2.28;;;9.70;58.30;;;;;;5137897;27;20191;-65
2024/03/12 01:42:56;;;;;;;3.10;2.33;;;9.80;58.00;;;;;;5137868;27;20191;-65
2024/03/12 01:45:26;;;;;;;6.65;3.28;;;9.70;58.00;;;;;;5138055;27;20188;-66
2024/03/12 01:47:55;;;;;;;3.97;2.03;;;9.80;58.20;;;;;;5138148;27;20215;-65
2024/03/12 01:50:24;;;;;;;2.95;2.00;;;9.70;58.30;;;;;;5138014;27;20223;-66
2024/03/12 01:52:54;;;;;;;3.50;2.28;;;9.80;58.40;;;;;;5138101;27;20219;-66
2024/03/12 01:55:22;;;;;;;3.88;1.90;;;9.70;58.20;;;;;;5138003;27;20266;-66
2024/03/12 01:57:51;;;;;;;2.88;1.70;;;9.70;58.30;;;;;;5137428;27;20187;-66
2024/03/12 02:00:20;;;;;;;3.80;2.38;;;9.70;58.50;;;;;;5137906;27;20596;-66
2024/03/12 02:02:52;;;;;;;2.53;1.60;;;9.70;58.70;;;;;;5137782;27;20236;-65
2024/03/12 02:05:20;;;;;;;2.97;1.90;;;9.70;58.70;;;;;;5138017;27;20188;-66
2024/03/12 02:07:50;;;;;;;3.50;2.10;;;9.60;58.70;;;;;;5137728;27;20191;-65
2024/03/12 02:10:18;;;;;;;4.13;2.20;;;9.50;59.00;;;;;;5137484;27;20194;-66
2024/03/12 02:12:46;;;;;;;2.90;1.70;;;9.50;59.10;;;;;;5137550;27;20183;-66
2024/03/12 02:15:14;;;;;;;2.63;1.70;;;9.50;59.00;;;;;;5137557;27;20577;-67
2024/03/12 02:17:41;;;;;;;3.17;1.73;;;9.50;59.40;;;;;;5137469;27;20330;-67
2024/03/12 02:20:10;;;;;;;2.78;1.85;;;9.40;59.40;;;;;;5137511;27;20224;-66
2024/03/12 02:22:37;;;;;;;4.53;2.28;;;9.40;59.80;;;;;;5137451;27;20218;-66
2024/03/12 02:25:06;;;;;;;2.35;1.25;;;9.30;59.90;;;;;;5137248;27;20248;-66
2024/03/12 02:27:36;;;;;;;2.88;1.60;;;9.30;60.10;;;;;;5137349;27;20188;-66
2024/03/12 02:30:04;;;;;;;2.55;1.45;;;9.30;60.00;;;;;;5137499;27;20270;-66
2024/03/12 02:32:32;;;;;;;2.40;1.42;;;9.40;60.10;;;;;;5136074;27;20188;-66
2024/03/12 02:34:59;;;;;;;3.20;1.50;;;9.40;60.20;;;;;;5137253;27;20196;-66
2024/03/12 02:37:26;;;;;;;2.90;1.88;;;9.40;60.20;;;;;;5137161;27;20219;-66
2024/03/12 02:39:53;;;;;;;2.67;1.60;;;9.50;60.10;;;;;;5136796;27;20212;-66
2024/03/12 02:42:21;;;;;;;5.80;1.92;;;9.50;59.80;;;;;;5136547;27;20183;-67
2024/03/12 02:44:48;;;;;;;3.13;1.65;;;9.60;59.80;;;;;;5136679;27;20635;-67
2024/03/12 02:47:16;;;;;;;2.90;1.83;;;9.70;59.80;;;;;;5136894;27;20216;-67
2024/03/12 02:49:42;;;;;;;3.53;2.00;;;9.70;59.70;;;;;;5136909;27;20223;-66
2024/03/12 02:52:11;;;;;;;3.50;1.80;;;9.70;59.70;;;;;;5136864;27;20270;-66
2024/03/12 02:54:38;;;;;;;3.03;1.52;;;9.80;59.70;;;;;;5136811;27;20183;-66
2024/03/12 02:57:05;;;;;;;4.60;1.70;;;9.80;59.60;;;;;;5136465;27;20248;-66
2024/03/12 02:59:33;;;;;;;3.13;2.25;;;9.80;59.40;;;;;;5136583;27;20203;-66
2024/03/12 03:02:00;;;;;;;2.60;1.80;;;9.90;59.40;;;;;;5136344;27;20276;-67
2024/03/12 03:04:28;;;;;;;3.47;2.00;;;9.90;59.30;;;;;;5136679;27;20184;-65
2024/03/12 03:06:57;;;;;;;3.22;2.42;;;9.90;59.30;;;;;;5136379;27;20194;-67
2024/03/12 03:09:25;;;;;;;3.45;2.47;;;9.90;59.20;;;;;;5136643;27;20198;-66
2024/03/12 03:11:52;;;;;;;4.25;3.00;;;10.00;58.40;;;;;;5136299;27;20184;-65
2024/03/12 03:14:19;;;;;;;4.00;3.38;;;10.00;58.50;;;;;;5136494;27;20195;-70
2024/03/12 03:16:50;;;;;;;3.95;2.85;;;10.00;58.50;;;;;;5136469;27;20184;-67
2024/03/12 03:19:17;;;;;;;6.13;2.95;;;10.00;58.50;;;;;;5136160;27;20314;-67
2024/03/12 03:21:45;;;;;;;5.22;3.17;;;10.10;58.70;;;;;;5136325;27;20222;-67
2024/03/12 03:24:11;;;;;;;3.90;3.20;;;10.00;58.60;;;;;;5135902;27;20223;-66
2024/03/12 03:26:39;;;;;;;5.05;3.13;;;10.10;58.70;;;;;;5136467;27;20238;-67
2024/03/12 03:29:05;;;;;;;5.30;3.35;;;10.10;58.70;;;;;;5135842;27;20283;-66
2024/03/12 03:31:32;;;;;;;3.92;2.97;;;10.00;58.70;;;;;;5135836;27;20654;-67
2024/03/12 03:34:04;;;;;;;3.90;3.13;;;10.00;59.00;;;;;;5136169;27;20184;-67
2024/03/12 03:36:32;;;;;;;5.15;3.83;;;10.00;59.00;;;;;;5135708;27;20176;-64
2024/03/12 03:39:05;;;;;;;4.60;3.50;;;10.00;59.00;;;;;;5135827;27;20243;-64
2024/03/12 03:41:32;;;;;;;4.70;3.45;;;10.10;59.10;;;;;;5135858;27;20172;-65
2024/03/12 03:43:59;;;;;;;3.72;3.40;;;10.00;59.00;;;;;;5135921;27;20462;-65
2024/03/12 03:46:25;;;;;;;4.50;3.67;;;10.00;59.20;;;;;;5135830;27;20194;-66
2024/03/12 03:48:55;;;;;;;4.32;3.10;;;10.00;59.20;;;;;;5135821;27;20385;-66
2024/03/12 03:51:25;;;;;;;5.70;3.60;;;10.10;59.30;;;;;;5135616;27;20266;-66
2024/03/12 03:53:52;;;;;;;5.25;3.63;;;10.10;59.30;;;;;;5135285;27;20172;-66
2024/03/12 03:56:19;;;;;;;4.35;3.30;;;10.10;59.30;;;;;;5135642;27;20650;-67
2024/03/12 03:58:47;;;;;;;5.20;3.50;;;10.00;59.30;;;;;;5135730;27;20238;-66
2024/03/12 04:01:18;;;;;;;4.60;3.45;;;10.00;59.50;;;;;;5135594;27;20183;-68
2024/03/12 04:03:47;;;;;;;5.40;4.30;;;10.00;59.60;;;;;;5135225;27;20167;-66
2024/03/12 04:06:21;;;;;;;5.57;2.85;;;10.00;59.70;;;;;;5135474;27;20502;-67
2024/03/12 04:08:49;;;;;;;4.60;3.55;;;10.00;59.70;;;;;;5135405;27;20606;-67
2024/03/12 04:11:20;;;;;;;4.57;3.78;;;10.00;60.30;;;;;;5135464;27;20188;-65
2024/03/12 04:13:48;;;;;;;6.38;4.15;;;10.00;59.70;;;;;;5135002;27;20193;-65
2024/03/12 04:16:14;;;;;;;5.85;3.35;;;10.00;59.60;;;;;;5117132;27;20577;-66
2024/03/12 04:18:44;;;;;;;4.85;3.30;;;10.00;59.70;;;;;;5134665;27;20692;-66
2024/03/12 04:21:11;;;;;;;4.50;3.60;;;10.00;59.70;;;;;;5135147;27;20176;-66
2024/03/12 04:23:39;;;;;;;6.50;3.90;;;10.00;59.70;;;;;;5134948;27;20618;-66
2024/03/12 04:26:07;;;;;;;3.58;2.95;;;10.00;59.80;;;;;;5135089;27;20191;-66
2024/03/12 04:28:36;;;;;;;4.43;4.00;;;10.00;59.70;;;;;;5133937;27;20183;-66
2024/03/12 04:31:06;;;;;;;5.07;3.50;;;10.00;59.70;;;;;;5134680;27;20180;-67
2024/03/12 04:33:34;;;;;;;4.25;3.05;;;10.00;59.70;;;;;;5134763;27;20172;-66
2024/03/12 04:36:01;;;;;;;4.50;3.30;;;10.00;59.60;;;;;;5134573;27;20634;-66
2024/03/12 04:38:30;;;;;;;5.05;3.13;;;10.00;59.60;;;;;;5134525;27;20226;-66
2024/03/12 04:40:57;;;;;;;3.30;2.60;;;10.00;59.70;;;;;;5134445;27;20222;-66
2024/03/12 04:43:26;;;;;;;5.53;3.55;;;10.00;59.50;;;;;;5133485;27;20191;-66
2024/03/12 04:45:53;;;;;;;3.90;3.00;;;10.00;59.50;;;;;;5134513;27;20274;-66
2024/03/12 04:48:21;;;;;;;3.95;3.55;;;10.00;59.40;;;;;;5134835;27;20228;-66
2024/03/12 04:50:48;;;;;;;4.18;3.45;;;10.00;59.20;;;;;;5134612;27;20191;-66
2024/03/12 04:53:15;;;;;;;3.85;3.17;;;10.00;59.00;;;;;;5134690;27;20179;-67
2024/03/12 04:55:43;;;;;;;4.55;2.90;;;10.00;59.00;;;;;;5134308;27;20602;-66
2024/03/12 04:58:12;;;;;;;3.28;2.80;;;10.00;58.90;;;;;;5134280;27;20702;-66
2024/03/12 05:00:42;;;;;;;4.50;2.60;;;10.00;58.80;;;;;;5134572;27;20204;-65
2024/03/12 05:03:09;;;;;;;4.15;3.20;;;10.00;58.90;;;;;;5134650;28;20274;-66
2024/03/12 05:05:36;;;;;;;4.15;2.75;;;9.90;59.70;;;;;;5134954;28;20187;-65
2024/03/12 05:08:03;;;;;;;4.75;2.65;;;10.00;58.80;;;;;;5134523;28;20349;-65
2024/03/12 05:10:30;;;;;;;4.82;2.92;;;10.00;58.70;;;;;;5134501;28;20238;-65
2024/03/12 05:12:57;;;;;;;4.82;2.60;;;9.90;59.40;;;;;;5134123;28;20179;-65
2024/03/12 05:15:24;;;;;;;5.63;2.78;;;9.90;59.30;;;;;;5134618;28;20196;-65
2024/03/12 05:17:54;;;;;;;3.60;3.15;;;9.90;59.30;;;;;;5134160;28;20641;-66
2024/03/12 05:20:23;;;;;;;4.25;2.90;;;9.90;59.30;;;;;;5134262;28;20248;-65
2024/03/12 05:22:50;;;;;;;4.30;3.00;;;9.80;59.80;;;;;;5134050;28;20214;-65
2024/03/12 05:25:22;;;;;;;3.58;2.40;;;9.80;59.30;;;;;;5134060;28;20207;-66
2024/03/12 05:27:50;;;;;;;3.28;2.50;;;9.70;59.30;;;;;;5134037;28;20610;-66
2024/03/12 05:30:20;;;;;;;4.72;2.97;;;9.80;59.10;;;;;;5134373;28;20183;-66
2024/03/12 05:32:47;;;;;;;4.10;2.30;;;9.80;59.00;;;;;;5134331;28;20172;-66
2024/03/12 05:35:21;;;;;;;3.55;2.40;;;9.70;58.90;;;;;;5133943;28;20199;-66
2024/03/12 05:38:10;;;;;;;5.00;2.85;;;9.70;58.90;;;;;;5134466;28;20557;-67
2024/03/12 05:40:46;;;;;;;3.85;2.22;;;9.70;58.80;;;;;;5134234;28;20198;-67
2024/03/12 05:48:43;;;;;;;4.28;2.05;;;9.60;58.50;;;;;;5133722;28;20164;-67
2024/03/12 05:51:11;;;;;;;5.18;2.55;;;9.50;58.50;;;;;;5133623;28;20192;-67
2024/03/12 05:53:38;;;;;;;3.58;2.42;;;9.50;58.60;;;;;;5133606;28;20226;-66
2024/03/12 05:56:10;;;;;;;3.85;2.30;;;9.50;58.50;;;;;;5133822;28;20180;-64
2024/03/12 05:58:37;;;;;;;4.43;2.15;;;9.40;58.50;;;;;;5133811;28;20176;-65
2024/03/12 06:01:05;;;;;;;5.22;2.13;;;9.40;58.50;;;;;;5133802;28;20206;-66
2024/03/12 06:03:35;;;;;;;3.53;2.45;;;9.40;58.50;;;;;;5132385;28;20191;-65
2024/03/12 06:06:04;;;;;;;4.80;2.25;;;9.40;58.90;;;;;;5134285;28;20203;-65
2024/03/12 06:08:32;;;;;;;4.95;2.70;;;9.40;58.30;;;;;;5136930;27;20192;-65
2024/03/12 06:10:59;;;;;;;3.75;2.30;;;9.40;58.30;;;;;;5137214;27;20560;-67
2024/03/12 06:13:27;;;;;;;3.28;2.33;;;9.40;58.30;;;;;;5137303;27;20236;-67
2024/03/12 06:15:54;;;;;;;4.35;2.70;;;9.40;58.20;;;;;;5137016;27;20290;-66
2024/03/12 06:18:22;;;;;;;9.27;2.20;;;9.40;58.10;;;;;;5136844;27;20215;-65
2024/03/12 06:20:50;;;;;;;3.90;2.20;;;9.40;58.00;;;;;;5137188;27;20692;-65
2024/03/12 06:23:18;;;;;;;4.22;2.42;;;9.40;58.20;;;;;;5137189;27;20206;-65
2024/03/12 06:25:47;;;;;;;6.18;2.40;;;9.40;58.40;;;;;;5137101;27;20528;-65
2024/03/12 06:28:14;;;;;;;3.60;2.60;;;9.40;58.60;;;;;;5137085;27;20190;-65
2024/03/12 06:30:42;;;;;;;3.20;2.08;;;9.50;58.90;;;;;;5137078;27;20451;-65
2024/03/12 06:33:11;;;;;;;3.65;2.70;;;9.60;58.90;;;;;;5136968;27;20362;-65
2024/03/12 06:35:38;;;;;;;5.03;2.75;;;9.70;59.00;;;;;;5136883;27;20525;-66
2024/03/12 06:38:06;;;;;;;4.05;2.70;;;9.80;58.50;;;;;;5136486;27;20191;-65
2024/03/12 06:40:33;;;;;;;3.03;2.10;;;9.80;58.10;;;;;;5136680;27;20523;-65
2024/03/12 06:43:01;;;;;;;8.48;2.95;;;9.90;58.00;;;;;;5136840;27;20195;-66
2024/03/12 06:45:28;;;;;;;6.25;2.20;;;9.90;57.60;;;;;;5136984;27;20195;-65
2024/03/12 06:47:56;;;;;;;4.10;2.30;;;9.90;57.30;;;;;;5136698;27;20251;-65
2024/03/12 06:50:25;;;;;;;4.85;2.20;;;10.00;56.30;;;;;;5136533;27;20619;-65
2024/03/12 06:52:53;;;;;;;4.20;2.75;;;10.10;56.10;;;;;;5136565;27;20251;-65
2024/03/12 06:55:23;;;;;;;4.18;2.35;;;10.10;55.70;;;;;;5136557;27;20215;-66
2024/03/12 06:57:54;;;;;;;4.30;2.40;;;10.10;55.80;;;;;;5136646;27;20188;-65
2024/03/12 07:00:32;;;;;;;3.40;2.65;;;10.20;56.00;;;;;;5136429;27;20207;-66
2024/03/12 07:03:02;;;;;;;5.00;2.13;;;10.20;55.90;;;;;;5136508;27;20200;-65
2024/03/12 07:05:30;;;;;;;3.95;1.92;;;10.30;55.80;;;;;;5136034;27;20233;-65
2024/03/12 07:07:58;;;;;;;4.55;2.20;;;10.40;55.50;;;;;;5136264;27;20180;-65
2024/03/12 07:10:25;;;;;;;3.10;1.80;;;10.40;55.10;;;;;;5135920;27;20541;-65
2024/03/12 07:12:52;;;;;;;4.38;2.00;;;10.40;55.00;;;;;;5135833;27;20187;-65
2024/03/12 07:15:19;;;;;;;3.28;1.80;;;10.30;55.00;;;;;;5135766;27;20187;-65
2024/03/12 07:17:48;;;;;;;5.55;2.33;;;10.40;55.10;;;;;;5136060;27;20187;-65
2024/03/12 07:20:16;;;;;;;4.30;2.47;;;10.30;55.00;;;;;;5135732;27;20215;-65
2024/03/12 07:22:43;;;;;;;5.00;2.30;;;10.40;55.30;;;;;;5135693;27;20630;-65
2024/03/12 07:25:11;;;;;;;7.15;2.80;;;10.30;55.10;;;;;;5135570;27;20278;-65
2024/03/12 07:27:39;;;;;;;3.63;2.40;;;10.30;55.10;;;;;;5135638;27;20190;-65
2024/03/12 07:30:09;;;;;;;2.90;1.70;;;10.30;55.20;;;;;;5135514;27;20717;-65
2024/03/12 07:32:37;;;;;;;5.00;2.92;;;10.40;55.50;;;;;;5135517;27;20183;-65
2024/03/12 07:35:06;;;;;;;3.78;2.20;;;10.50;55.90;;;;;;5135470;27;20275;-65
2024/03/12 07:37:36;;;;;;;2.72;1.63;;;10.50;55.80;;;;;;5135390;27;20184;-65
2024/03/12 07:40:04;;;;;;;4.75;2.83;;;10.60;55.50;;;;;;5135177;27;20207;-66
2024/03/12 07:42:31;;;;;;;3.83;2.28;;;10.60;55.50;;;;;;5135795;27;20191;-65
2024/03/12 07:45:01;;;;;;;3.65;2.13;;;10.70;55.70;;;;;;5135183;27;20188;-65
2024/03/12 07:47:30;;;;;;;5.90;2.53;;;10.70;55.60;;;;;;5135278;27;20168;-65
2024/03/12 07:49:57;;;;;;;3.75;2.13;;;10.80;55.70;;;;;;5135540;27;20221;-65
2024/03/12 07:52:26;;;;;;;3.55;1.90;;;10.80;55.30;;;;;;5135522;27;20238;-66
2024/03/12 07:54:53;;;;;;;3.22;2.17;;;10.90;55.10;;;;;;5135298;27;20219;-66
2024/03/12 07:57:20;;;;;;;4.95;1.90;;;10.90;54.70;;;;;;5134928;27;20283;-66
2024/03/12 07:59:47;;;;;;;5.30;2.40;;;11.00;54.30;;;;;;5135234;27;20239;-66
2024/03/12 08:02:19;;;;;;;3.92;1.83;;;11.00;54.10;;;;;;5135282;27;20226;-65
2024/03/12 08:04:47;;;;;;;5.47;2.45;;;11.10;53.50;;;;;;5135358;27;20210;-66
2024/03/12 08:07:14;;;;;;;4.15;1.77;;;11.10;53.50;;;;;;5134948;27;20536;-65
2024/03/12 08:09:43;;;;;;;5.22;2.00;;;11.10;53.40;;;;;;5134805;27;20179;-65
2024/03/12 08:12:13;;;;;;;5.80;2.03;;;11.10;53.50;;;;;;5135002;27;20270;-65
2024/03/12 08:14:40;;;;;;;6.25;2.13;;;11.10;53.70;;;;;;5134943;27;20190;-66
2024/03/12 08:17:08;;;;;;;3.63;1.75;;;11.20;53.40;;;;;;5134664;27;20626;-65
2024/03/12 08:19:35;;;;;;;3.33;2.40;;;11.10;53.70;;;;;;5134286;27;20260;-65
2024/03/12 08:22:03;;;;;;;2.70;1.70;;;11.20;53.60;;;;;;5134829;27;20187;-66
2024/03/12 08:24:30;;;;;;;3.35;1.58;;;11.20;53.50;;;;;;5134571;27;20197;-65
2024/03/12 08:26:59;;;;;;;3.05;2.10;;;11.20;53.10;;;;;;5134490;27;20640;-65
2024/03/12 08:29:26;;;;;;;4.20;2.03;;;11.20;53.20;;;;;;5134749;27;20607;-65
2024/03/12 08:31:54;;;;;;;3.55;2.20;;;11.20;52.80;;;;;;5134040;27;20203;-66
2024/03/12 08:34:21;;;;;;;3.25;2.03;;;11.30;52.50;;;;;;5134606;27;20574;-65
2024/03/12 08:36:48;;;;;;;4.00;2.65;;;11.30;52.50;;;;;;5134373;27;20230;-65
2024/03/12 08:39:15;;;;;;;3.30;2.13;;;11.30;52.90;;;;;;5134185;27;20222;-65
2024/03/12 08:41:43;;;;;;;3.10;1.90;;;11.30;52.30;;;;;;5134487;27;20215;-65
2024/03/12 08:44:14;;;;;;;5.15;2.13;;;11.40;52.30;;;;;;5134479;27;20180;-67
2024/03/12 08:46:40;;;;;;;2.88;1.90;;;11.40;52.40;;;;;;5134245;27;20175;-66
2024/03/12 08:49:10;;;;;;;3.87;2.03;;;11.50;52.80;;;;;;5134509;27;20187;-65
2024/03/12 08:51:38;;;;;;;3.00;1.90;;;11.50;52.80;;;;;;5134349;27;20434;-66
2024/03/12 08:54:06;;;;;;;3.47;3.17;;;11.60;53.10;;;;;;5134398;27;20188;-65
2024/03/12 08:56:35;;;;;;;3.60;2.55;;;11.70;52.70;;;;;;5134296;27;20191;-65
2024/03/12 08:59:02;;;;;;;3.60;2.03;;;11.80;52.50;;;;;;5134681;27;20188;-66
2024/03/12 09:01:31;;;;;;;4.03;2.22;;;11.90;52.00;;;;;;5115998;28;20457;-66
2024/03/12 09:03:58;;;;;;;4.30;2.20;;;11.90;51.80;;;;;;5134307;27;20183;-65
2024/03/12 09:06:26;;;;;;;4.80;2.43;;;12.00;51.80;;;;;;5134284;28;20490;-65
2024/03/12 09:08:53;;;;;;;4.77;2.57;;;12.00;51.20;;;;;;5133871;28;20494;-66
2024/03/12 09:11:21;;;;;;;7.93;2.10;;;12.10;50.80;;;;;;5134203;28;20581;-65
2024/03/12 09:13:48;;;;;;;2.80;1.77;;;12.10;50.70;;;;;;5134203;28;20255;-66
2024/03/12 09:16:16;;;;;;;3.37;1.90;;;12.10;50.20;;;;;;5133862;28;20429;-65
2024/03/12 09:18:45;;;;;;;7.28;1.95;;;12.10;50.50;;;;;;5133986;28;20437;-65
2024/03/12 09:21:13;;;;;;;4.47;2.75;;;12.10;50.90;;;;;;5133748;28;20198;-65
2024/03/12 09:23:41;;;;;;;7.43;2.20;;;12.10;50.50;;;;;;5134230;28;20179;-65
2024/03/12 09:26:08;;;;;;;4.63;1.77;;;12.10;50.30;;;;;;5133779;28;20818;-65
2024/03/12 09:28:36;;;;;;;3.45;1.50;;;12.20;49.60;;;;;;5134079;28;20760;-65
2024/03/12 09:31:04;;;;;;;3.70;2.20;;;12.20;49.60;;;;;;5133945;28;20206;-66
2024/03/12 09:33:31;;;;;;;2.93;1.67;;;12.30;50.10;;;;;;5133961;28;20433;-65
2024/03/12 09:35:59;;;;;;;3.40;1.93;;;12.30;49.80;;;;;;5133920;28;20817;-66
2024/03/12 09:38:26;;;;;;;4.40;1.93;;;12.30;49.80;;;;;;5134031;28;20508;-66
2024/03/12 09:40:56;;;;;;;4.50;2.13;;;12.40;49.80;;;;;;5133450;28;21020;-66
2024/03/12 09:43:26;;;;;;;3.10;1.80;;;12.40;49.80;;;;;;5137512;27;20444;-66
2024/03/12 09:45:54;;;;;;;3.40;1.90;;;12.30;49.50;;;;;;5138042;27;20759;-66
2024/03/12 09:48:21;;;;;;;3.23;1.77;;;12.30;49.40;;;;;;5137540;27;20420;-66
2024/03/12 09:50:49;;;;;;;3.00;1.60;;;12.30;49.30;;;;;;5137516;27;20990;-66
2024/03/12 09:53:18;;;;;;;4.30;1.60;;;12.20;49.10;;;;;;5137374;27;20910;-66
2024/03/12 09:55:46;;;;;;;3.80;1.53;;;12.20;49.30;;;;;;5137330;27;20425;-66
2024/03/12 09:58:12;;;;;;;4.17;1.63;;;12.20;49.40;;;;;;5137729;27;20730;-66
2024/03/12 10:00:41;;;;;;;3.30;1.70;;;12.20;49.80;;;;;;5137245;27;20468;-66
2024/03/12 10:03:08;;;;;;;3.13;1.80;;;12.20;50.00;;;;;;5137510;27;20437;-65
2024/03/12 10:05:37;;;;;;;2.40;1.30;;;12.20;50.00;;;;;;5137444;27;20472;-66
2024/03/12 10:08:12;;;;;;;7.13;2.03;;;12.20;49.60;;;;;;5137366;27;20486;-66
2024/03/12 10:10:43;;;;;;;5.82;1.48;;;12.30;49.30;;;;;;5137672;27;20422;-65
2024/03/12 10:13:14;;;;;;;2.80;1.70;;;12.30;49.10;;;;;;5137501;27;20172;-66
2024/03/12 10:15:49;;;;;;;3.80;1.10;;;12.30;49.00;;;;;;5137433;27;20172;-66
2024/03/12 10:18:18;;;;;;;3.42;1.50;;;12.30;49.10;;;;;;5137386;27;20505;-66
2024/03/12 10:20:49;;;;;;;3.63;1.00;;;12.30;47.90;;;;;;5137247;27;20222;-66
2024/03/12 10:23:18;;;;;;;3.27;1.50;;;12.30;47.30;;;;;;5136840;27;20468;-66
2024/03/12 10:25:48;;;;;;;3.63;1.90;;;12.20;47.40;;;;;;5137099;27;20472;-66
2024/03/12 10:28:16;;;;;;;3.13;1.47;;;12.10;48.00;;;;;;5137262;27;20417;-66
2024/03/12 10:30:45;;;;;;;4.80;1.30;;;12.20;48.40;;;;;;5137439;27;20452;-66
2024/03/12 10:33:17;;;;;;;4.15;1.67;;;12.20;48.60;;;;;;5137011;27;20532;-65
2024/03/12 10:35:45;;;;;;;2.90;1.37;;;12.20;48.10;;;;;;5136605;27;20703;-66
2024/03/12 10:38:26;;;;;;;2.60;1.45;;;12.20;48.50;;;;;;5136866;27;20460;-66
2024/03/12 10:40:55;;;;;;;2.35;1.35;;;12.20;48.40;;;;;;5136850;27;20200;-65
2024/03/12 10:43:24;;;;;;;5.07;1.73;;;12.20;47.40;;;;;;5136802;27;20191;-65
2024/03/12 10:45:51;;;;;;;3.05;1.33;;;12.10;47.60;;;;;;5136740;27;20850;-65
2024/03/12 10:48:19;;;;;;;3.45;1.55;;;12.10;48.10;;;;;;5136661;27;20583;-66
2024/03/12 10:50:48;;;;;;;3.70;1.50;;;12.10;48.30;;;;;;5136271;27;20229;-66
2024/03/12 10:53:16;;;;;;;2.80;1.50;;;12.10;48.20;;;;;;5135546;27;20462;-66
2024/03/12 10:55:43;;;;;;;2.93;1.40;;;12.10;48.30;;;;;;5136533;27;20433;-66
2024/03/12 10:58:15;;;;;;;4.20;1.67;;;12.10;47.90;;;;;;5136524;27;20465;-66
2024/03/12 11:00:44;;;;;;;2.35;1.45;;;12.00;48.10;;;;;;5136496;27;20794;-66
2024/03/12 11:03:13;;;;;;;3.13;1.77;;;12.00;48.50;;;;;;5136484;27;20210;-67
2024/03/12 11:05:42;;;;;;;2.60;1.40;;;12.00;48.30;;;;;;5136348;27;20429;-67
2024/03/12 11:08:10;;;;;;;2.70;1.48;;;12.00;48.70;;;;;;5136431;27;20749;-66
2024/03/12 11:10:38;;;;;;;3.00;1.63;;;12.00;48.60;;;;;;5136357;27;20236;-66
2024/03/12 11:13:07;;;;;;;3.80;1.83;;;12.10;48.00;;;;;;5136242;27;20465;-67
2024/03/12 11:15:36;;;;;;;3.05;1.58;;;12.10;47.90;;;;;;5136014;27;20921;-67
2024/03/12 11:18:05;;;;;;;3.30;1.50;;;12.00;48.30;;;;;;5136350;27;20187;-67
2024/03/12 11:20:33;;;;;;;2.70;1.40;;;12.00;48.30;;;;;;5135667;27;20222;-67
2024/03/12 11:23:01;;;;;;;2.97;1.60;;;12.00;48.30;;;;;;5135698;27;20486;-67
2024/03/12 11:25:32;;;;;;;2.88;1.88;;;11.90;48.30;;;;;;5135641;27;20430;-64
2024/03/12 11:28:19;;;;;;;2.30;1.50;;;11.90;48.90;;;;;;5136043;27;20174;-65
2024/03/12 11:30:48;;;;;;;4.13;1.60;;;11.90;49.00;;;;;;5135998;27;20468;-65
2024/03/12 11:33:46;;;;;;;4.28;2.00;;;11.90;49.50;;;;;;5135766;27;20190;-67
2024/03/12 11:36:22;;;;;;;2.65;1.35;;;11.90;49.60;;;;;;5135871;27;20254;-66
2024/03/12 11:38:51;;;;;;;3.20;2.10;;;11.90;49.20;;;;;;5135447;27;20183;-67
2024/03/12 11:41:19;;;;;;;2.38;1.30;;;11.90;49.40;;;;;;5135575;27;20472;-67
2024/03/12 11:43:49;;;;;;;3.45;1.50;;;12.00;49.00;;;;;;5135797;27;20256;-66
2024/03/12 11:46:20;;;;;;;4.15;1.40;;;11.90;48.90;;;;;;5135400;27;20272;-66
2024/03/12 11:48:48;;;;;;;3.30;1.60;;;11.90;49.20;;;;;;5135842;27;20275;-66
2024/03/12 11:51:19;;;;;;;3.80;1.60;;;11.90;49.00;;;;;;5135112;27;20919;-66
2024/03/12 11:53:47;;;;;;;2.30;1.10;;;11.90;49.00;;;;;;5135600;27;20820;-67
2024/03/12 11:56:19;;;;;;;2.20;1.10;;;11.80;48.40;;;;;;5135393;27;20770;-66
2024/03/12 11:58:51;;;;;;;2.58;1.20;;;11.80;48.70;;;;;;5135357;27;20637;-66
2024/03/12 12:01:21;;;;;;;2.33;1.40;;;11.80;49.20;;;;;;5135273;27;20295;-66
2024/03/12 12:03:54;;;;;;;3.63;2.07;;;11.70;49.20;;;;;;5134872;27;20275;-66
2024/03/12 12:06:21;;;;;;;3.53;1.40;;;11.70;49.30;;;;;;5134341;27;20414;-67
2024/03/12 12:08:48;;;;;;;5.28;1.77;;;11.70;49.40;;;;;;5135063;27;20529;-67
2024/03/12 12:11:16;;;;;;;2.70;1.52;;;11.70;49.70;;;;;;5134729;27;20237;-67
2024/03/12 12:13:46;;;;;;;4.30;1.37;;;11.70;50.00;;;;;;5134694;27;20638;-66
2024/03/12 12:16:16;;;;;;;3.22;1.55;;;11.70;49.60;;;;;;5135099;27;20886;-66
2024/03/12 12:18:45;;;;;;;2.95;1.98;;;11.70;49.60;;;;;;5134858;27;20211;-67
2024/03/12 12:21:14;;;;;;;2.87;1.90;;;11.70;49.70;;;;;;5134986;27;20229;-66
2024/03/12 12:23:43;;;;;;;2.17;1.13;;;11.70;50.00;;;;;;5134582;27;20440;-66
2024/03/12 12:26:12;;;;;;;2.97;1.50;;;11.80;50.30;;;;;;5134566;27;20425;-66
2024/03/12 12:28:41;;;;;;;3.13;1.70;;;11.80;50.10;;;;;;5134476;27;20929;-66
2024/03/12 12:31:11;;;;;;;2.45;1.40;;;11.90;50.80;;;;;;5134732;27;20438;-66
2024/03/12 12:33:40;;;;;;;2.60;1.48;;;12.00;50.50;;;;;;5134452;27;20274;-67
2024/03/12 12:36:12;;;;;;;3.92;1.52;;;12.00;50.10;;;;;;5134686;27;20564;-67
2024/03/12 12:38:41;;;;;;;2.30;1.23;;;12.10;50.40;;;;;;5134385;27;20229;-66
2024/03/12 12:41:10;;;;;;;2.90;1.63;;;12.10;49.80;;;;;;5134163;27;20194;-66
2024/03/12 12:43:39;;;;;;;2.70;1.40;;;12.10;49.80;;;;;;5134545;27;20195;-67
2024/03/12 12:46:16;;;;;;;2.37;1.43;;;12.10;49.70;;;;;;5134339;27;20180;-68
2024/03/12 12:48:44;;;;;;;2.40;1.38;;;12.20;50.00;;;;;;5134566;27;20422;-66
2024/03/12 12:51:13;;;;;;;2.58;1.30;;;12.20;50.20;;;;;;5134506;27;20187;-66
2024/03/12 12:53:41;;;;;;;2.83;1.80;;;12.20;50.60;;;;;;5134180;27;20202;-67
2024/03/12 12:56:08;;;;;;;2.57;1.43;;;12.10;49.80;;;;;;5134161;27;20949;-67
2024/03/12 12:58:36;;;;;;;2.20;1.30;;;12.20;49.40;;;;;;5134283;27;20544;-66
2024/03/12 13:01:05;;;;;;;3.50;1.50;;;12.10;49.40;;;;;;5134183;27;20520;-66
2024/03/12 13:03:38;;;;;;;2.80;1.60;;;12.00;49.70;;;;;;5134246;27;20444;-67